Time;durP1;ratioP1;P1;durP2;ratioP2;P2;SDS_P1;SDS_P2;PMS_P1;PMS_P2;Temp;Humidity;BMP_temperature;BMP_pressure;BME280_temperature;BME280_humidity;BME280_pressure;Samples;Min_cycle;Max_cycle;Signal;HPM_P1;HPM_P2
2022/06/30 00:00:09;;;;;;;0.20;0.20;;;19.10;99.90;;;;;;5091993;28;20192;-73
2022/06/30 00:02:35;;;;;;;0.90;0.75;;;19.10;99.90;;;;;;5091665;28;20355;-73
2022/06/30 00:05:00;;;;;;;2.03;0.85;;;19.10;99.90;;;;;;5091987;28;20043;-73
2022/06/30 00:07:26;;;;;;;0.40;0.32;;;19.00;99.90;;;;;;5092008;28;20524;-73
2022/06/30 00:09:52;;;;;;;1.23;0.68;;;18.90;99.90;;;;;;5091792;28;20051;-73
2022/06/30 00:12:17;;;;;;;1.27;0.82;;;18.70;99.90;;;;;;5091625;28;20044;-73
2022/06/30 00:14:43;;;;;;;0.32;0.32;;;18.60;99.90;;;;;;5091684;28;20044;-73
2022/06/30 00:17:09;;;;;;;0.57;0.40;;;18.50;99.90;;;;;;5091894;28;20444;-73
2022/06/30 00:19:35;;;;;;;0.98;0.55;;;18.40;99.90;;;;;;5090869;28;20046;-74
2022/06/30 00:22:01;;;;;;;2.10;0.75;;;18.30;99.90;;;;;;5091645;28;20036;-74
2022/06/30 00:24:27;;;;;;;1.08;0.75;;;18.10;99.90;;;;;;5091939;28;20086;-73
2022/06/30 00:26:52;;;;;;;1.45;1.25;;;18.10;99.90;;;;;;5091397;28;20451;-74
2022/06/30 00:29:18;;;;;;;4.03;0.20;;;17.90;99.90;;;;;;5091362;28;20126;-73
2022/06/30 00:31:44;;;;;;;0.77;0.77;;;18.00;99.90;;;;;;5091626;28;20040;-73
2022/06/30 00:34:09;;;;;;;0.80;0.80;;;17.80;99.90;;;;;;5091373;28;20087;-73
2022/06/30 00:36:35;;;;;;;0.32;0.32;;;17.60;99.90;;;;;;5091577;28;20093;-73
2022/06/30 00:39:00;;;;;;;0.32;0.30;;;17.70;99.90;;;;;;5091345;28;20490;-73
2022/06/30 00:41:26;;;;;;;0.52;0.30;;;17.70;99.90;;;;;;5091579;28;20036;-73
2022/06/30 00:43:52;;;;;;;0.30;0.30;;;17.70;99.90;;;;;;5091896;28;20044;-73
2022/06/30 00:46:17;;;;;;;0.13;0.13;;;17.60;99.90;;;;;;5091322;28;20047;-73
2022/06/30 00:48:44;;;;;;;1.33;0.52;;;17.60;99.90;;;;;;5091190;28;20051;-73
2022/06/30 00:51:10;;;;;;;0.43;0.28;;;17.50;99.90;;;;;;5091374;28;20414;-73
2022/06/30 00:53:39;;;;;;;1.20;0.40;;;17.50;99.90;;;;;;5091149;28;20589;-73
2022/06/30 00:56:07;;;;;;;0.77;0.50;;;17.50;99.90;;;;;;5091447;28;20096;-73
2022/06/30 00:58:37;;;;;;;0.43;0.22;;;17.40;99.90;;;;;;5091209;28;20501;-73
2022/06/30 01:01:04;;;;;;;0.45;0.45;;;17.50;99.90;;;;;;5091251;28;20059;-73
2022/06/30 01:03:32;;;;;;;0.60;0.60;;;17.40;99.90;;;;;;5091082;28;20055;-73
2022/06/30 01:06:03;;;;;;;1.20;0.20;;;17.30;99.90;;;;;;5091045;28;20421;-73
2022/06/30 01:08:32;;;;;;;0.63;0.45;;;17.20;99.90;;;;;;5090998;28;20402;-73
2022/06/30 01:13:43;;;;;;;0.30;0.30;;;17.30;99.90;;;;;;5091153;28;20130;-73
2022/06/30 01:16:11;;;;;;;0.55;0.52;;;17.30;99.90;;;;;;5091138;28;20540;-73
2022/06/30 01:18:36;;;;;;;0.08;0.08;;;17.20;99.90;;;;;;5091383;28;20044;-73
2022/06/30 01:21:02;;;;;;;0.93;0.85;;;17.10;99.90;;;;;;5090949;28;20048;-73
2022/06/30 01:23:28;;;;;;;0.00;0.00;;;17.00;99.90;;;;;;5091235;28;20445;-73
2022/06/30 01:25:54;;;;;;;3.25;0.50;;;17.10;99.90;;;;;;5091129;28;20032;-73
2022/06/30 01:28:20;;;;;;;1.67;1.13;;;16.90;99.90;;;;;;5091227;28;20040;-73
2022/06/30 01:30:45;;;;;;;1.90;0.47;;;16.90;99.90;;;;;;5091911;28;20505;-73
2022/06/30 01:33:11;;;;;;;1.70;0.43;;;16.90;99.90;;;;;;5095010;28;20115;-73
2022/06/30 01:35:37;;;;;;;0.10;0.10;;;16.90;99.90;;;;;;5094770;28;20048;-73
2022/06/30 01:38:02;;;;;;;0.10;0.10;;;16.90;99.90;;;;;;5094713;28;20071;-73
2022/06/30 01:40:33;;;;;;;1.65;1.05;;;16.90;99.90;;;;;;5094715;28;20109;-73
2022/06/30 01:42:59;;;;;;;1.50;0.77;;;17.00;99.90;;;;;;5095097;28;20059;-74
2022/06/30 01:45:25;;;;;;;0.28;0.20;;;17.00;99.90;;;;;;5094731;28;20054;-73
2022/06/30 01:47:51;;;;;;;0.40;0.40;;;17.10;99.90;;;;;;5094622;28;20043;-74
2022/06/30 01:50:20;;;;;;;0.95;0.77;;;17.10;99.90;;;;;;5094541;28;20059;-74
2022/06/30 01:52:46;;;;;;;2.00;0.88;;;17.40;99.90;;;;;;5094455;28;20487;-73
2022/06/30 01:57:44;;;;;;;1.00;0.60;;;17.30;99.90;;;;;;5146877;22;20066;-74
2022/06/30 02:00:34;;;;;;;0.52;0.47;;;17.30;99.90;;;;;;5095214;28;20529;-74
2022/06/30 02:03:00;;;;;;;0.57;0.57;;;17.20;99.90;;;;;;5094594;28;20093;-74
2022/06/30 02:05:25;;;;;;;0.28;0.28;;;17.40;99.90;;;;;;5097408;28;20048;-78
2022/06/30 02:07:52;;;;;;;0.98;0.60;;;17.10;99.90;;;;;;5078889;28;20046;-74
2022/06/30 02:10:20;;;;;;;0.20;0.20;;;17.10;99.90;;;;;;5097326;28;20036;-74
2022/06/30 02:12:46;;;;;;;3.10;1.48;;;17.00;99.90;;;;;;5078496;28;20052;-74
2022/06/30 02:15:16;;;;;;;1.98;0.77;;;17.10;99.90;;;;;;5095546;28;20036;-75
2022/06/30 02:17:43;;;;;;;0.40;0.40;;;16.80;99.90;;;;;;5097399;28;20047;-75
2022/06/30 02:20:10;;;;;;;0.80;0.57;;;16.80;99.90;;;;;;5097013;28;20491;-76
2022/06/30 02:22:39;;;;;;;0.43;0.40;;;16.60;99.90;;;;;;5078956;28;20051;-75
2022/06/30 02:25:06;;;;;;;1.85;1.38;;;16.50;99.90;;;;;;5097209;28;20101;-74
2022/06/30 02:27:32;;;;;;;0.52;0.43;;;16.40;99.90;;;;;;5078753;28;20044;-75
2022/06/30 02:29:58;;;;;;;1.55;0.95;;;16.60;99.90;;;;;;5095998;28;20083;-75
2022/06/30 02:32:24;;;;;;;1.27;0.68;;;16.20;99.90;;;;;;5096722;28;20479;-75
2022/06/30 02:34:51;;;;;;;1.20;0.70;;;16.10;99.90;;;;;;5096732;28;20401;-74
2022/06/30 02:37:17;;;;;;;1.65;0.32;;;16.00;99.90;;;;;;5096708;28;20479;-74
2022/06/30 02:39:43;;;;;;;1.70;0.98;;;15.90;99.90;;;;;;5096449;28;20036;-74
2022/06/30 02:42:09;;;;;;;0.65;0.43;;;15.80;99.90;;;;;;5095608;28;20048;-74
2022/06/30 02:44:35;;;;;;;0.73;0.52;;;15.70;99.90;;;;;;5096880;28;20040;-74
2022/06/30 02:47:01;;;;;;;0.80;0.70;;;15.80;99.90;;;;;;5096649;28;20089;-74
2022/06/30 02:49:27;;;;;;;0.47;0.32;;;15.60;99.90;;;;;;5096091;28;20036;-74
2022/06/30 02:51:52;;;;;;;2.08;1.00;;;15.60;99.90;;;;;;5095968;28;20036;-74
2022/06/30 02:54:18;;;;;;;1.25;0.88;;;15.60;99.90;;;;;;5096317;28;20375;-73
2022/06/30 02:56:44;;;;;;;2.83;1.55;;;15.60;99.90;;;;;;5095656;28;20090;-75
2022/06/30 02:59:09;;;;;;;1.13;0.65;;;15.70;99.90;;;;;;5095994;28;20384;-74
2022/06/30 03:01:35;;;;;;;3.40;0.55;;;15.90;99.90;;;;;;5078073;28;20044;-74
2022/06/30 03:04:02;;;;;;;0.70;0.68;;;15.70;99.90;;;;;;5095510;28;20040;-75
2022/06/30 03:06:30;;;;;;;0.95;0.68;;;15.70;99.90;;;;;;5075954;28;20101;-74
2022/06/30 03:08:56;;;;;;;0.68;0.68;;;15.70;99.90;;;;;;5075503;28;20116;-75
2022/06/30 03:11:23;;;;;;;1.08;0.57;;;15.60;99.90;;;;;;5075658;28;20036;-74
2022/06/30 03:13:48;;;;;;;0.57;0.40;;;15.70;99.90;;;;;;5075591;28;20483;-74
2022/06/30 03:16:15;;;;;;;0.93;0.60;;;15.70;99.90;;;;;;5075488;28;20052;-75
2022/06/30 03:18:41;;;;;;;5.07;1.58;;;15.80;99.90;;;;;;5075667;28;20047;-74
2022/06/30 03:21:07;;;;;;;0.98;0.60;;;15.90;99.90;;;;;;5075792;28;20040;-73
2022/06/30 03:23:33;;;;;;;0.20;0.20;;;15.80;99.90;;;;;;5064189;28;20487;-72
2022/06/30 03:25:59;;;;;;;0.03;0.03;;;15.80;99.90;;;;;;5082580;28;20541;-73
2022/06/30 03:28:25;;;;;;;0.75;0.40;;;15.80;99.90;;;;;;5083138;28;20037;-75
2022/06/30 03:30:51;;;;;;;0.60;0.55;;;15.80;99.90;;;;;;5080476;28;20466;-75
2022/06/30 03:33:17;;;;;;;0.95;0.88;;;15.80;99.90;;;;;;5075160;28;20131;-76
2022/06/30 03:35:44;;;;;;;0.00;0.00;;;15.80;99.90;;;;;;5075390;28;20042;-75
2022/06/30 03:38:10;;;;;;;0.77;0.60;;;15.80;99.90;;;;;;5075444;28;20036;-75
2022/06/30 03:40:35;;;;;;;0.20;0.17;;;15.80;99.90;;;;;;5075218;28;20189;-74
2022/06/30 03:43:01;;;;;;;1.33;0.88;;;15.70;99.90;;;;;;5074610;28;20050;-74
2022/06/30 03:45:27;;;;;;;1.67;0.68;;;15.80;99.90;;;;;;5074870;28;20032;-73
2022/06/30 03:47:52;;;;;;;1.25;0.73;;;15.80;99.90;;;;;;5074900;28;20458;-74
2022/06/30 03:50:18;;;;;;;0.95;0.40;;;15.80;99.90;;;;;;5075620;28;20139;-75
2022/06/30 03:52:44;;;;;;;0.70;0.43;;;15.80;99.90;;;;;;5075406;28;20055;-74
2022/06/30 03:55:09;;;;;;;0.55;0.55;;;15.80;99.90;;;;;;5075377;28;20040;-73
2022/06/30 03:57:35;;;;;;;1.10;0.43;;;15.90;99.90;;;;;;5075522;28;20080;-73
2022/06/30 04:00:02;;;;;;;0.30;0.30;;;15.80;99.90;;;;;;5076017;28;20051;-75
2022/06/30 04:02:28;;;;;;;0.30;0.20;;;16.00;99.90;;;;;;5057661;28;20495;-74
2022/06/30 04:04:53;;;;;;;0.28;0.28;;;16.00;99.90;;;;;;5075511;28;20071;-74
2022/06/30 04:07:19;;;;;;;1.25;0.90;;;16.20;99.90;;;;;;5075363;28;20392;-74
2022/06/30 04:09:45;;;;;;;2.00;1.02;;;16.20;99.90;;;;;;5075215;28;20040;-74
2022/06/30 04:12:10;;;;;;;0.43;0.32;;;16.30;99.90;;;;;;5075533;28;20457;-75
2022/06/30 04:14:36;;;;;;;1.23;0.80;;;16.30;99.90;;;;;;5075494;28;20085;-72
2022/06/30 04:17:02;;;;;;;0.00;0.00;;;16.50;99.90;;;;;;5075231;28;20093;-75
2022/06/30 04:19:27;;;;;;;2.83;1.17;;;16.50;99.90;;;;;;5075167;28;20051;-75
2022/06/30 04:21:53;;;;;;;0.55;0.52;;;16.50;99.90;;;;;;5075585;28;20607;-74
2022/06/30 04:24:19;;;;;;;0.25;0.17;;;16.60;99.90;;;;;;5040903;28;20397;-75
2022/06/30 04:26:44;;;;;;;0.32;0.32;;;16.50;99.90;;;;;;5074903;28;20040;-75
2022/06/30 04:29:10;;;;;;;0.68;0.50;;;16.60;99.90;;;;;;5075271;28;20049;-75
2022/06/30 04:34:21;;;;;;;0.93;0.57;;;16.70;99.90;;;;;;5067783;28;20083;-74
2022/06/30 04:36:47;;;;;;;0.32;0.28;;;17.00;99.90;;;;;;5094022;28;20044;-74
2022/06/30 04:39:12;;;;;;;0.65;0.55;;;17.00;99.90;;;;;;5093134;28;20391;-74
2022/06/30 04:41:38;;;;;;;0.57;0.57;;;17.00;99.90;;;;;;5094091;28;20036;-74
2022/06/30 04:44:05;;;;;;;0.20;0.20;;;17.00;99.90;;;;;;5075465;28;20043;-73
2022/06/30 04:46:31;;;;;;;0.63;0.40;;;17.00;99.90;;;;;;5093415;28;20031;-73
2022/06/30 04:48:57;;;;;;;0.60;0.55;;;17.00;99.90;;;;;;5090997;28;20040;-75
2022/06/30 04:51:23;;;;;;;0.17;0.17;;;17.10;99.90;;;;;;5092003;28;20048;-75
2022/06/30 04:53:50;;;;;;;0.32;0.32;;;17.40;99.90;;;;;;5092532;28;20052;-74
2022/06/30 04:56:17;;;;;;;1.05;0.52;;;17.90;99.90;;;;;;5093440;28;20056;-75
2022/06/30 04:58:44;;;;;;;0.63;0.57;;;18.70;99.90;;;;;;5092460;28;20044;-76
2022/06/30 05:01:10;;;;;;;0.17;0.17;;;19.20;99.90;;;;;;5091840;28;20037;-74
2022/06/30 05:03:37;;;;;;;1.27;0.73;;;19.80;99.90;;;;;;5092754;28;20036;-73
2022/06/30 05:06:04;;;;;;;1.95;1.08;;;20.00;99.90;;;;;;5090705;28;20040;-76
2022/06/30 05:08:31;;;;;;;0.47;0.30;;;20.00;99.90;;;;;;5091261;28;20041;-74
2022/06/30 05:10:57;;;;;;;0.15;0.15;;;20.20;99.90;;;;;;5094528;28;20039;-74
2022/06/30 05:13:23;;;;;;;0.32;0.32;;;20.00;99.90;;;;;;5086148;28;20056;-74
2022/06/30 05:15:48;;;;;;;0.65;0.60;;;19.90;99.90;;;;;;5062665;28;20040;-74
2022/06/30 05:18:14;;;;;;;2.47;1.45;;;20.30;99.90;;;;;;5075525;28;20044;-75
2022/06/30 05:20:41;;;;;;;1.45;0.57;;;20.50;99.90;;;;;;5075239;28;20037;-76
2022/06/30 05:23:08;;;;;;;0.43;0.32;;;20.30;99.90;;;;;;5056097;28;20125;-75
2022/06/30 05:28:18;;;;;;;0.80;0.35;;;19.80;99.90;;;;;;5073869;28;20491;-76
2022/06/30 05:30:44;;;;;;;0.20;0.20;;;20.10;99.90;;;;;;5073812;28;20040;-74
2022/06/30 05:33:10;;;;;;;0.30;0.30;;;20.50;99.90;;;;;;5055534;28;20407;-75
2022/06/30 05:35:35;;;;;;;0.35;0.25;;;21.10;99.90;;;;;;5073558;28;20045;-75
2022/06/30 05:38:01;;;;;;;1.65;0.85;;;21.50;99.90;;;;;;5073569;28;20072;-74
2022/06/30 05:40:27;;;;;;;0.10;0.10;;;21.80;99.90;;;;;;5073206;28;20044;-75
2022/06/30 05:42:53;;;;;;;0.80;0.73;;;21.90;99.90;;;;;;5073344;28;20051;-76
2022/06/30 05:45:19;;;;;;;0.17;0.17;;;22.30;99.90;;;;;;5073376;28;20471;-74
2022/06/30 05:47:53;;;;;;;0.08;0.08;;;22.30;99.90;;;;;;5055073;28;20407;-74
2022/06/30 05:50:20;;;;;;;1.02;0.85;;;22.60;99.90;;;;;;5073105;28;20044;-75
2022/06/30 05:52:46;;;;;;;0.47;0.45;;;22.70;99.90;;;;;;5072159;28;20049;-73
2022/06/30 05:55:13;;;;;;;0.20;0.20;;;22.90;99.90;;;;;;5073245;28;20087;-73
2022/06/30 05:58:01;;;;;;;0.70;0.45;;;23.20;99.90;;;;;;5072630;28;20056;-74
2022/06/30 06:00:28;;;;;;;2.08;0.85;;;22.80;99.90;;;;;;5055021;28;20495;-74
2022/06/30 06:02:54;;;;;;;1.27;0.68;;;23.10;99.90;;;;;;5072986;28;20045;-74
2022/06/30 06:05:21;;;;;;;0.10;0.10;;;23.20;99.90;;;;;;5072625;28;20064;-75
2022/06/30 06:07:47;;;;;;;0.10;0.10;;;23.20;99.90;;;;;;5038124;28;20044;-75
2022/06/30 06:10:13;;;;;;;0.98;0.80;;;23.70;96.20;;;;;;5072646;28;20130;-74
2022/06/30 06:12:39;;;;;;;0.85;0.43;;;24.10;97.70;;;;;;5072717;28;20504;-74
2022/06/30 06:15:05;;;;;;;0.40;0.40;;;23.80;93.60;;;;;;5055083;28;20079;-75
2022/06/30 06:17:31;;;;;;;1.38;0.65;;;24.00;91.80;;;;;;5073254;28;20081;-75
2022/06/30 06:19:58;;;;;;;0.17;0.17;;;23.90;92.50;;;;;;5076248;28;20067;-75
2022/06/30 06:22:24;;;;;;;0.45;0.45;;;23.40;95.40;;;;;;5076107;28;20495;-73
2022/06/30 06:24:49;;;;;;;0.25;0.20;;;23.30;97.40;;;;;;5076429;28;20123;-75
2022/06/30 06:27:15;;;;;;;0.03;0.03;;;23.30;97.30;;;;;;5076178;28;20194;-74
2022/06/30 06:29:41;;;;;;;0.28;0.28;;;23.70;97.90;;;;;;5057637;28;20074;-75
2022/06/30 06:32:07;;;;;;;0.50;0.40;;;24.10;93.10;;;;;;5076009;28;20128;-75
2022/06/30 06:34:32;;;;;;;1.33;0.57;;;24.60;91.20;;;;;;5058422;28;20408;-75
2022/06/30 06:36:58;;;;;;;0.20;0.20;;;24.20;90.40;;;;;;5075623;28;20052;-74
2022/06/30 06:39:23;;;;;;;0.68;0.50;;;23.90;90.70;;;;;;5075485;28;20045;-76
2022/06/30 06:41:49;;;;;;;1.20;0.77;;;23.90;93.10;;;;;;5075516;28;20124;-74
2022/06/30 06:44:14;;;;;;;0.10;0.10;;;24.20;91.40;;;;;;5057685;28;20046;-73
2022/06/30 06:46:40;;;;;;;0.25;0.25;;;24.50;88.30;;;;;;5057581;28;20041;-73
2022/06/30 06:49:07;;;;;;;0.30;0.28;;;24.80;82.90;;;;;;5075352;28;20075;-75
2022/06/30 06:51:34;;;;;;;0.77;0.70;;;24.40;87.00;;;;;;5075500;28;20041;-75
2022/06/30 06:54:00;;;;;;;1.27;0.63;;;24.70;93.70;;;;;;5076382;28;20032;-75
2022/06/30 06:56:26;;;;;;;0.50;0.28;;;25.00;87.00;;;;;;5079872;28;20052;-74
2022/06/30 06:58:51;;;;;;;0.35;0.20;;;25.20;73.60;;;;;;5079344;28;20052;-74
2022/06/30 07:01:17;;;;;;;0.20;0.20;;;25.50;72.10;;;;;;5076171;28;20511;-74
2022/06/30 07:03:42;;;;;;;0.47;0.45;;;26.00;65.40;;;;;;5073367;28;20041;-74
2022/06/30 07:06:08;;;;;;;1.95;0.75;;;25.70;63.40;;;;;;5057839;28;20132;-75
2022/06/30 07:08:35;;;;;;;0.88;0.73;;;26.10;59.40;;;;;;5075345;28;20487;-76
2022/06/30 07:11:02;;;;;;;0.82;0.52;;;26.20;57.20;;;;;;5072982;28;20144;-74
2022/06/30 07:13:28;;;;;;;0.28;0.28;;;26.40;49.70;;;;;;5072559;28;20075;-74
2022/06/30 07:15:54;;;;;;;0.85;0.70;;;25.90;57.70;;;;;;5072346;28;20487;-74
2022/06/30 07:18:20;;;;;;;3.35;1.17;;;26.40;53.10;;;;;;5072147;28;20058;-74
2022/06/30 07:20:46;;;;;;;0.80;0.40;;;26.70;59.10;;;;;;5071931;28;20157;-74
2022/06/30 07:23:12;;;;;;;0.20;0.20;;;26.20;53.50;;;;;;5071888;28;20072;-75
2022/06/30 07:25:38;;;;;;;0.75;0.47;;;27.20;47.50;;;;;;5071697;28;20435;-73
2022/06/30 07:28:04;;;;;;;5.20;0.60;;;27.50;40.80;;;;;;5071340;28;20044;-75
2022/06/30 07:30:30;;;;;;;1.30;1.10;;;26.50;44.50;;;;;;5071917;28;20039;-74
2022/06/30 07:32:55;;;;;;;0.57;0.50;;;26.80;52.70;;;;;;5071536;28;20387;-76
2022/06/30 07:35:21;;;;;;;1.35;0.65;;;26.80;50.80;;;;;;5071388;28;20052;-73
2022/06/30 07:37:47;;;;;;;0.25;0.13;;;26.80;45.20;;;;;;5071559;28;20041;-74
2022/06/30 07:40:14;;;;;;;0.30;0.30;;;27.10;44.80;;;;;;5071663;28;20056;-73
2022/06/30 07:42:44;;;;;;;0.00;0.00;;;28.50;40.60;;;;;;5071589;28;20056;-74
2022/06/30 07:45:13;;;;;;;0.08;0.08;;;28.80;25.40;;;;;;5071240;28;20052;-72
2022/06/30 07:47:39;;;;;;;1.13;0.50;;;28.40;23.70;;;;;;5071091;28;20052;-74
2022/06/30 07:50:06;;;;;;;0.30;0.30;;;29.00;19.70;;;;;;5071324;28;20032;-74
2022/06/30 07:52:33;;;;;;;0.05;0.05;;;29.70;19.40;;;;;;5053478;28;20400;-73
2022/06/30 07:54:59;;;;;;;0.38;0.28;;;30.50;10.00;;;;;;5071377;28;20067;-73
2022/06/30 07:57:27;;;;;;;0.75;0.38;;;29.80;12.90;;;;;;5070801;28;20055;-73
2022/06/30 07:59:53;;;;;;;0.65;0.55;;;29.00;18.20;;;;;;5071004;28;20056;-74
2022/06/30 08:02:18;;;;;;;0.63;0.63;;;30.00;18.20;;;;;;5070882;28;20048;-75
2022/06/30 08:04:44;;;;;;;0.52;0.47;;;30.40;13.90;;;;;;5071176;28;20098;-74
2022/06/30 08:07:10;;;;;;;0.80;0.38;;;30.90;10.40;;;;;;5071109;28;20063;-73
2022/06/30 08:09:36;;;;;;;2.55;0.93;;;31.00;9.40;;;;;;5070718;28;20076;-74
2022/06/30 08:12:03;;;;;;;0.60;0.47;;;30.70;6.30;;;;;;5070721;28;20048;-75
2022/06/30 08:14:29;;;;;;;0.88;0.65;;;30.60;7.40;;;;;;5070621;28;20052;-75
2022/06/30 08:16:54;;;;;;;0.70;0.60;;;29.30;13.20;;;;;;5070805;28;20059;-74
2022/06/30 08:19:20;;;;;;;0.63;0.60;;;29.80;18.80;;;;;;5070736;28;20403;-75
2022/06/30 08:21:47;;;;;;;0.43;0.35;;;29.80;16.20;;;;;;5070108;28;20491;-74
2022/06/30 08:24:13;;;;;;;0.60;0.40;;;30.40;11.80;;;;;;5070321;28;20055;-75
2022/06/30 08:26:38;;;;;;;1.20;1.05;;;30.10;14.00;;;;;;5070260;28;20048;-74
2022/06/30 08:29:04;;;;;;;0.70;0.47;;;30.10;11.80;;;;;;5070455;28;20115;-74
2022/06/30 08:31:29;;;;;;;0.40;0.20;;;28.90;21.10;;;;;;5036162;28;20044;-74
2022/06/30 08:33:55;;;;;;;6.18;1.30;;;28.60;26.80;;;;;;5070258;28;20036;-73
2022/06/30 08:36:22;;;;;;;1.67;1.13;;;28.90;31.90;;;;;;5052799;28;20048;-73
2022/06/30 08:38:48;;;;;;;2.25;0.90;;;28.90;26.00;;;;;;5036360;28;20094;-73
2022/06/30 08:43:59;;;;;;;0.73;0.57;;;29.70;20.30;;;;;;5070816;28;20139;-73
2022/06/30 08:46:27;;;;;;;1.10;0.80;;;29.40;21.00;;;;;;5070475;28;20047;-74
2022/06/30 08:48:54;;;;;;;0.55;0.43;;;28.90;25.30;;;;;;5070693;28;20041;-75
2022/06/30 08:51:21;;;;;;;0.45;0.32;;;29.40;38.70;;;;;;5070619;28;20049;-74
2022/06/30 08:54:15;;;;;;;0.20;0.20;;;30.00;23.10;;;;;;5072044;28;20040;-74
2022/06/30 08:56:43;;;;;;;1.65;1.08;;;30.80;17.00;;;;;;5069846;28;20071;-73
2022/06/30 08:59:09;;;;;;;1.65;1.00;;;31.90;9.00;;;;;;5070904;28;20044;-75
2022/06/30 09:01:34;;;;;;;0.43;0.43;;;31.80;6.50;;;;;;5071524;28;20123;-74
2022/06/30 09:04:00;;;;;;;1.80;1.02;;;31.80;5.90;;;;;;5072803;28;20040;-75
2022/06/30 09:06:26;;;;;;;1.48;0.98;;;30.50;9.80;;;;;;5072753;28;20044;-73
2022/06/30 09:08:52;;;;;;;0.20;0.20;;;30.30;12.90;;;;;;5072506;28;20399;-74
2022/06/30 09:11:17;;;;;;;1.17;0.80;;;30.20;13.10;;;;;;5072592;28;20048;-72
2022/06/30 09:13:50;;;;;;;1.55;1.20;;;29.90;17.80;;;;;;5072789;28;20037;-73
2022/06/30 09:16:19;;;;;;;0.30;0.30;;;30.80;14.60;;;;;;5072637;28;20041;-73
2022/06/30 09:18:45;;;;;;;2.38;0.75;;;30.40;13.80;;;;;;5072954;28;20114;-73
2022/06/30 09:21:18;;;;;;;0.60;0.45;;;30.40;18.00;;;;;;5072747;28;20484;-74
2022/06/30 09:23:46;;;;;;;0.30;0.30;;;31.70;9.70;;;;;;5072828;28;20036;-73
2022/06/30 09:26:18;;;;;;;0.30;0.20;;;31.60;6.00;;;;;;5072693;28;20126;-75
2022/06/30 09:28:55;;;;;;;0.73;0.32;;;32.40;5.10;;;;;;5072582;28;20040;-75
2022/06/30 09:31:38;;;;;;;0.43;0.40;;;33.10;1.60;;;;;;5072490;28;20493;-73
2022/06/30 09:34:19;;;;;;;0.57;0.55;;;32.90;2.50;;;;;;5072066;28;20097;-74
2022/06/30 09:36:49;;;;;;;1.75;0.90;;;32.30;1.00;;;;;;5072932;28;20052;-74
2022/06/30 09:39:16;;;;;;;0.82;0.75;;;31.60;2.60;;;;;;5054831;28;20041;-73
2022/06/30 09:41:43;;;;;;;1.05;0.88;;;30.90;6.70;;;;;;5072748;28;20048;-75
2022/06/30 09:44:20;;;;;;;0.32;0.32;;;31.40;4.80;;;;;;5072984;28;20068;-73
2022/06/30 09:47:11;;;;;;;4.82;0.65;;;31.30;11.60;;;;;;5072800;28;20032;-74
2022/06/30 09:49:40;;;;;;;1.23;0.65;;;31.80;6.00;;;;;;5072197;28;20570;-74
2022/06/30 09:52:24;;;;;;;0.50;0.32;;;32.00;3.50;;;;;;5056263;28;20051;-74
2022/06/30 09:55:00;;;;;;;0.30;0.30;;;32.10;3.10;;;;;;5076168;28;20106;-74
2022/06/30 09:57:28;;;;;;;0.57;0.45;;;31.90;3.00;;;;;;5075846;28;20048;-74
2022/06/30 10:00:04;;;;;;;0.65;0.30;;;31.80;1.80;;;;;;5058438;28;20444;-74
2022/06/30 10:02:32;;;;;;;0.63;0.55;;;32.50;1.00;;;;;;5076319;28;20048;-74
2022/06/30 10:05:03;;;;;;;0.52;0.52;;;31.60;7.00;;;;;;5075934;28;20516;-73
2022/06/30 10:07:30;;;;;;;1.25;0.50;;;31.80;2.90;;;;;;5058257;28;20040;-73
2022/06/30 10:09:55;;;;;;;1.02;0.88;;;31.10;8.30;;;;;;5075878;28;20494;-74
2022/06/30 10:12:24;;;;;;;1.58;0.50;;;31.00;9.20;;;;;;5075611;28;20131;-73
2022/06/30 10:14:51;;;;;;;0.55;0.50;;;31.50;8.50;;;;;;5075768;28;20555;-73
2022/06/30 10:17:24;;;;;;;0.68;0.63;;;31.70;7.80;;;;;;5057571;28;20036;-74
2022/06/30 10:19:52;;;;;;;0.55;0.32;;;31.90;7.60;;;;;;5075779;28;20047;-73
2022/06/30 10:22:19;;;;;;;1.15;0.68;;;31.40;5.00;;;;;;5075495;28;20055;-73
2022/06/30 10:24:46;;;;;;;1.90;1.20;;;31.70;7.20;;;;;;5075979;28;20112;-73
2022/06/30 10:27:12;;;;;;;1.65;0.63;;;31.80;4.60;;;;;;5075984;28;20052;-74
2022/06/30 10:29:40;;;;;;;2.03;1.10;;;31.40;4.00;;;;;;5075676;28;20041;-74
2022/06/30 10:32:23;;;;;;;0.20;0.20;;;31.50;8.40;;;;;;5075787;28;20459;-72
2022/06/30 10:35:14;;;;;;;5.78;1.17;;;31.60;10.40;;;;;;5041185;28;20518;-76
2022/06/30 10:37:54;;;;;;;0.70;0.47;;;32.30;6.90;;;;;;5075806;28;20365;-75
2022/06/30 10:40:54;;;;;;;0.82;0.60;;;32.80;1.00;;;;;;5076033;28;20556;-74
2022/06/30 10:43:20;;;;;;;1.15;0.82;;;33.10;1.00;;;;;;5076190;28;20037;-75
2022/06/30 10:46:06;;;;;;;0.57;0.50;;;32.70;1.00;;;;;;5075706;28;20048;-74
2022/06/30 10:48:53;;;;;;;0.32;0.32;;;33.00;1.00;;;;;;5075049;28;20048;-72
2022/06/30 10:51:19;;;;;;;0.73;0.40;;;33.40;1.00;;;;;;5075332;28;20040;-73
2022/06/30 10:53:45;;;;;;;0.68;0.60;;;33.50;1.00;;;;;;5075396;28;20044;-74
2022/06/30 10:56:10;;;;;;;0.47;0.47;;;33.40;1.00;;;;;;5073634;28;20067;-73
2022/06/30 10:58:36;;;;;;;4.07;1.25;;;33.30;1.00;;;;;;5075140;28;20036;-73
2022/06/30 11:01:04;;;;;;;0.98;0.68;;;32.20;1.00;;;;;;5075323;28;20403;-74
2022/06/30 11:03:30;;;;;;;0.55;0.55;;;32.30;1.20;;;;;;5074676;28;20037;-75
2022/06/30 11:06:01;;;;;;;1.50;0.65;;;31.80;2.40;;;;;;5074953;28;20047;-73
2022/06/30 11:08:39;;;;;;;1.63;0.95;;;32.20;1.40;;;;;;5074953;28;20036;-74
2022/06/30 11:11:20;;;;;;;1.13;0.80;;;33.00;1.00;;;;;;5056995;28;20044;-73
2022/06/30 11:13:49;;;;;;;1.50;1.00;;;33.30;1.00;;;;;;5075200;28;20045;-74
2022/06/30 11:16:16;;;;;;;0.90;0.77;;;32.40;1.00;;;;;;5056832;28;20055;-74
2022/06/30 11:18:42;;;;;;;1.33;0.80;;;32.60;4.50;;;;;;5075340;28;20040;-74
2022/06/30 11:21:09;;;;;;;0.55;0.50;;;32.30;1.00;;;;;;5075369;28;20454;-74
2022/06/30 11:23:44;;;;;;;0.77;0.60;;;31.70;6.00;;;;;;5075693;28;20636;-74
2022/06/30 11:28:57;;;;;;;0.10;0.10;;;31.70;4.30;;;;;;5075590;28;20052;-72
2022/06/30 11:31:27;;;;;;;3.78;0.90;;;31.80;5.90;;;;;;5075063;28;20403;-73
2022/06/30 11:34:00;;;;;;;0.57;0.55;;;31.30;7.70;;;;;;5075724;28;20048;-74
2022/06/30 11:36:26;;;;;;;0.20;0.20;;;30.70;10.20;;;;;;5075141;28;20052;-71
2022/06/30 11:39:08;;;;;;;2.60;0.90;;;30.50;8.90;;;;;;5075616;28;20430;-74
2022/06/30 11:44:23;;;;;;;0.80;0.80;;;30.50;18.80;;;;;;5075418;28;20056;-73
2022/06/30 11:46:53;;;;;;;0.63;0.47;;;31.10;20.50;;;;;;5057468;28;20449;-72
2022/06/30 11:49:20;;;;;;;1.35;0.70;;;32.20;1.00;;;;;;5075055;28;20090;-73
2022/06/30 11:51:46;;;;;;;3.38;0.68;;;33.60;1.00;;;;;;5057508;28;20503;-73
2022/06/30 11:54:13;;;;;;;0.40;0.40;;;34.90;1.00;;;;;;5075230;28;20072;-73
2022/06/30 11:56:46;;;;;;;0.45;0.43;;;35.80;1.00;;;;;;5074566;28;20053;-74
2022/06/30 11:59:12;;;;;;;1.25;1.17;;;36.50;1.00;;;;;;5075137;28;20055;-74
2022/06/30 12:01:37;;;;;;;0.60;0.30;;;36.90;1.00;;;;;;5074660;28;20090;-72
2022/06/30 12:04:13;;;;;;;0.55;0.55;;;37.80;1.00;;;;;;5074553;28;20415;-74
2022/06/30 12:06:39;;;;;;;0.57;0.50;;;38.30;1.00;;;;;;5074281;28;20041;-74
2022/06/30 12:09:04;;;;;;;0.10;0.10;;;38.00;1.00;;;;;;5074391;28;20045;-74
2022/06/30 12:11:30;;;;;;;3.15;0.75;;;38.20;1.00;;;;;;5074385;28;20505;-72
2022/06/30 12:13:56;;;;;;;0.13;0.13;;;38.30;1.00;;;;;;5074458;28;20126;-72
2022/06/30 12:16:21;;;;;;;1.27;0.35;;;38.10;1.00;;;;;;5055798;28;20121;-73
2022/06/30 12:18:47;;;;;;;0.73;0.45;;;38.10;1.00;;;;;;5074317;28;20044;-73
2022/06/30 12:21:13;;;;;;;1.02;0.55;;;37.80;1.00;;;;;;5074780;28;20051;-72
2022/06/30 12:23:39;;;;;;;0.30;0.30;;;37.20;1.00;;;;;;5074872;28;20600;-73
2022/06/30 12:26:07;;;;;;;0.08;0.08;;;37.00;1.00;;;;;;5074985;28;20407;-72
2022/06/30 12:28:55;;;;;;;0.30;0.25;;;37.60;1.00;;;;;;5075138;28;20045;-73
2022/06/30 12:31:26;;;;;;;0.60;0.40;;;38.50;1.00;;;;;;5074244;28;20055;-73
2022/06/30 12:33:53;;;;;;;1.45;0.82;;;38.80;1.00;;;;;;5074436;28;20036;-73
2022/06/30 12:36:19;;;;;;;1.30;0.60;;;38.60;1.00;;;;;;5057000;28;20059;-73
2022/06/30 12:38:44;;;;;;;0.38;0.30;;;39.30;1.00;;;;;;5074373;28;20037;-73
2022/06/30 12:41:13;;;;;;;0.30;0.30;;;38.10;1.00;;;;;;5074611;28;20044;-74
2022/06/30 12:43:52;;;;;;;4.03;0.93;;;38.70;1.00;;;;;;5074119;28;20037;-74
2022/06/30 12:46:18;;;;;;;0.20;0.10;;;38.70;1.00;;;;;;5074161;28;20052;-73
2022/06/30 12:48:52;;;;;;;1.50;0.70;;;38.30;1.00;;;;;;5074116;28;20076;-73
2022/06/30 12:51:35;;;;;;;0.40;0.20;;;37.50;1.00;;;;;;5074230;28;20040;-72
2022/06/30 12:54:07;;;;;;;0.28;0.28;;;36.80;1.00;;;;;;5076630;28;20044;-73
2022/06/30 12:56:34;;;;;;;8.52;0.93;;;36.00;1.00;;;;;;5074953;28;20064;-74
2022/06/30 12:58:59;;;;;;;0.10;0.10;;;34.20;1.00;;;;;;5058169;28;20055;-74
2022/06/30 13:01:26;;;;;;;0.90;0.75;;;33.80;1.00;;;;;;5074432;28;20053;-75
2022/06/30 13:03:53;;;;;;;2.38;0.95;;;35.10;1.00;;;;;;5075701;28;20499;-73
2022/06/30 13:06:20;;;;;;;1.35;0.82;;;35.40;1.00;;;;;;5075014;28;20051;-73
2022/06/30 13:08:46;;;;;;;2.63;0.50;;;34.60;1.00;;;;;;5073970;28;20044;-73
2022/06/30 13:11:25;;;;;;;0.98;0.60;;;33.90;1.00;;;;;;5074447;28;20403;-73